createdAt,value
2019-06-15T00:02:12.161Z,7.20
2019-06-15T00:04:41.609Z,8.20
2019-06-15T00:07:11.150Z,7.93
2019-06-15T00:09:40.572Z,8.30
2019-06-15T00:12:09.952Z,8.05
2019-06-15T00:14:39.419Z,7.90
2019-06-15T00:17:09.113Z,8.33
2019-06-15T00:19:38.576Z,8.40
2019-06-15T00:22:07.958Z,8.90
2019-06-15T00:24:37.408Z,9.00
2019-06-15T00:27:06.891Z,9.23
2019-06-15T00:29:36.354Z,9.33
2019-06-15T00:32:05.801Z,9.70
2019-06-15T00:34:35.247Z,8.57
2019-06-15T00:37:05.010Z,9.10
2019-06-15T00:39:34.474Z,9.60
2019-06-15T00:42:03.871Z,8.80
2019-06-15T00:44:33.377Z,10.07
2019-06-15T00:47:02.863Z,8.97
2019-06-15T00:49:35.839Z,9.50
2019-06-15T00:52:05.516Z,9.53
2019-06-15T00:54:47.352Z,9.90
2019-06-15T00:57:37.330Z,10.13
2019-06-15T01:00:12.236Z,10.27
2019-06-15T01:03:06.161Z,9.75
2019-06-15T01:06:29.449Z,9.90
2019-06-15T01:09:08.179Z,10.23
2019-06-15T01:11:47.242Z,10.90
2019-06-15T01:15:18.025Z,10.33
2019-06-15T01:18:29.911Z,10.43
2019-06-15T01:21:10.164Z,10.20
2019-06-15T01:27:18.605Z,9.37
2019-06-15T01:30:13.641Z,8.30
2019-06-15T01:33:00.292Z,8.03
2019-06-15T01:35:41.067Z,9.23
2019-06-15T01:38:22.386Z,9.43
2019-06-15T01:41:03.141Z,10.37
2019-06-15T01:44:16.933Z,10.07
2019-06-15T01:46:46.391Z,11.07
2019-06-15T01:49:15.912Z,9.80
2019-06-15T01:51:45.369Z,9.83
2019-06-15T01:54:14.743Z,9.50
2019-06-15T01:56:44.244Z,9.50
2019-06-15T01:59:13.653Z,9.60
2019-06-15T02:01:43.119Z,8.30
2019-06-15T02:04:12.638Z,8.60
2019-06-15T02:06:42.101Z,7.83
2019-06-15T02:09:11.499Z,8.57
2019-06-15T02:11:40.998Z,8.13
2019-06-15T02:14:10.476Z,7.90
2019-06-15T02:16:40.022Z,8.30
2019-06-15T02:19:09.439Z,8.20
2019-06-15T02:21:38.889Z,8.50
2019-06-15T02:24:08.364Z,8.13
2019-06-15T02:26:37.823Z,8.43
2019-06-15T02:29:07.204Z,8.43
2019-06-15T02:31:36.650Z,8.00
2019-06-15T02:34:06.274Z,7.97
2019-06-15T02:36:35.804Z,8.00
2019-06-15T02:39:07.247Z,8.47
2019-06-15T02:41:36.684Z,8.53
2019-06-15T02:44:06.064Z,8.77
2019-06-15T02:46:35.645Z,7.93
2019-06-15T02:49:05.250Z,8.57
2019-06-15T02:51:34.765Z,8.47
2019-06-15T02:54:04.542Z,8.63
2019-06-15T02:56:34.033Z,8.63
2019-06-15T02:59:03.526Z,8.60
2019-06-15T03:01:32.977Z,8.57
2019-06-15T03:04:02.498Z,8.17
2019-06-15T03:06:31.971Z,8.70
2019-06-15T03:09:01.462Z,8.13
2019-06-15T03:11:32.325Z,9.30
2019-06-15T03:14:03.424Z,9.37
2019-06-15T03:16:32.884Z,8.37
2019-06-15T03:19:02.341Z,9.13
2019-06-15T03:21:31.777Z,8.53
2019-06-15T03:24:01.276Z,8.70
2019-06-15T03:26:30.732Z,9.20
2019-06-15T03:29:00.135Z,8.97
2019-06-15T03:31:29.584Z,8.97
2019-06-15T03:33:59.104Z,8.80
2019-06-15T03:36:28.634Z,8.03
2019-06-15T03:38:58.010Z,8.63
2019-06-15T03:41:27.499Z,8.63
2019-06-15T03:43:56.979Z,9.63
2019-06-15T03:46:26.438Z,9.90
2019-06-15T03:48:55.857Z,9.40
2019-06-15T03:51:25.306Z,8.85
2019-06-15T03:53:54.787Z,9.30
2019-06-15T03:56:24.250Z,8.80
2019-06-15T03:58:53.703Z,9.20
2019-06-15T04:01:32.715Z,9.13
2019-06-15T04:04:02.102Z,8.87
2019-06-15T04:06:31.531Z,8.83
2019-06-15T04:09:01.074Z,9.18
2019-06-15T04:11:30.478Z,9.17
2019-06-15T04:14:01.039Z,9.53
2019-06-15T04:16:30.527Z,9.40
2019-06-15T04:19:00.016Z,9.55
2019-06-15T04:21:29.518Z,8.93
2019-06-15T04:23:58.940Z,9.18
2019-06-15T04:26:35.934Z,9.60
2019-06-15T04:28:59.623Z,9.13
2019-06-15T04:31:29.085Z,9.88
2019-06-15T04:33:58.500Z,8.45
2019-06-15T04:36:27.978Z,9.18
2019-06-15T04:38:57.467Z,9.03
2019-06-15T04:41:26.911Z,8.55
2019-06-15T04:43:56.400Z,8.30
2019-06-15T04:46:25.871Z,8.98
2019-06-15T04:48:55.245Z,9.20
2019-06-15T04:51:24.727Z,8.85
2019-06-15T04:53:54.272Z,9.13
2019-06-15T04:56:23.698Z,9.23
2019-06-15T04:58:53.093Z,9.00
2019-06-15T05:01:22.564Z,9.88
2019-06-15T05:03:52.061Z,9.43
2019-06-15T05:06:21.539Z,8.35
2019-06-15T05:08:50.955Z,7.90
2019-06-15T05:11:20.402Z,8.78
2019-06-15T05:13:49.989Z,8.05
2019-06-15T05:16:19.436Z,8.75
2019-06-15T05:18:48.891Z,8.03
2019-06-15T05:21:18.309Z,8.40
2019-06-15T05:23:47.739Z,9.13
2019-06-15T05:26:17.189Z,8.75
2019-06-15T05:28:46.677Z,8.40
2019-06-15T05:31:16.154Z,8.25
2019-06-15T05:33:45.537Z,7.40
2019-06-15T05:36:14.985Z,7.30
2019-06-15T05:38:44.597Z,7.45
2019-06-15T05:41:15.779Z,7.30
2019-06-15T05:43:45.308Z,7.30
2019-06-15T05:46:14.804Z,7.37
2019-06-15T05:48:44.306Z,7.70
2019-06-15T05:51:13.758Z,7.12
2019-06-15T05:53:43.178Z,7.08
2019-06-15T05:56:12.630Z,7.78
2019-06-15T05:58:42.120Z,7.15
2019-06-15T06:01:11.586Z,7.22
2019-06-15T06:03:40.975Z,7.72
2019-06-15T06:06:10.447Z,7.33
2019-06-15T06:08:40.076Z,7.37
2019-06-15T06:11:09.559Z,7.28
2019-06-15T06:13:38.946Z,7.15
2019-06-15T06:16:08.442Z,6.97
2019-06-15T06:18:37.937Z,6.08
2019-06-15T06:21:07.398Z,6.20
2019-06-15T06:23:36.828Z,6.45
2019-06-15T06:26:06.296Z,7.00
2019-06-15T06:28:35.799Z,6.55
2019-06-15T06:31:05.391Z,6.97
2019-06-15T06:33:34.815Z,6.40
2019-06-15T06:36:06.306Z,6.97
2019-06-15T06:38:35.976Z,7.05
2019-06-15T06:41:05.489Z,6.30
2019-06-15T06:43:35.007Z,6.83
2019-06-15T06:46:05.431Z,6.67
2019-06-15T06:48:35.160Z,6.33
2019-06-15T06:51:04.832Z,6.53
2019-06-15T06:53:34.531Z,6.37
2019-06-15T06:56:05.051Z,6.15
2019-06-15T06:58:34.575Z,6.78
2019-06-15T07:01:04.352Z,6.00
2019-06-15T07:03:33.998Z,5.50
2019-06-15T07:06:06.481Z,5.87
2019-06-15T07:08:41.529Z,6.15
2019-06-15T07:11:11.068Z,5.58
2019-06-15T07:13:43.853Z,6.08
2019-06-15T07:16:17.746Z,5.37
2019-06-15T07:18:47.272Z,5.58
2019-06-15T07:21:20.097Z,5.53
2019-06-15T07:23:49.563Z,5.90
2019-06-15T07:26:19.104Z,5.50
2019-06-15T07:28:48.640Z,5.53
2019-06-15T07:31:18.086Z,5.58
2019-06-15T07:33:47.464Z,5.03
2019-06-15T07:36:17.116Z,4.67
2019-06-15T07:38:46.601Z,5.28
2019-06-15T07:41:16.150Z,4.72
2019-06-15T07:43:45.576Z,5.17
2019-06-15T07:46:15.051Z,5.30
2019-06-15T07:48:44.563Z,4.50
2019-06-15T07:51:14.101Z,5.20
2019-06-15T07:53:45.646Z,5.03
2019-06-15T07:56:16.130Z,4.55
2019-06-15T07:58:46.221Z,4.28
2019-06-15T08:10:14.070Z,4.75
2019-06-15T08:12:43.631Z,4.42
2019-06-15T08:15:13.279Z,4.28
2019-06-15T08:17:45.530Z,4.75
2019-06-15T08:20:14.539Z,4.50
2019-06-15T08:22:44.042Z,4.45
2019-06-15T08:25:14.629Z,4.60
2019-06-15T08:27:44.053Z,4.33
2019-06-15T08:30:15.073Z,4.22
2019-06-15T08:32:44.680Z,4.60
2019-06-15T08:35:14.311Z,4.87
2019-06-15T08:37:43.709Z,4.15
2019-06-15T08:40:13.705Z,4.90
2019-06-15T08:42:43.721Z,4.58
2019-06-15T08:45:13.108Z,4.40
2019-06-15T08:47:42.594Z,4.83
2019-06-15T08:50:12.138Z,4.47
2019-06-15T08:52:41.548Z,3.80
2019-06-15T08:55:11.309Z,4.08
2019-06-15T08:57:40.846Z,3.90
2019-06-15T09:00:11.561Z,4.00
2019-06-15T09:02:40.942Z,4.28
2019-06-15T09:05:10.800Z,4.72
2019-06-15T09:07:40.277Z,4.30
2019-06-15T09:10:10.593Z,3.67
2019-06-15T09:12:40.221Z,4.40
2019-06-15T09:15:11.227Z,3.83
2019-06-15T09:17:40.710Z,3.90
2019-06-15T09:20:11.059Z,4.12
2019-06-15T09:22:40.509Z,4.53
2019-06-15T09:25:10.223Z,4.60
2019-06-15T09:27:39.674Z,3.58
2019-06-15T09:30:09.382Z,3.65
2019-06-15T09:32:38.887Z,3.85
2019-06-15T09:35:09.313Z,3.90
2019-06-15T09:37:38.714Z,3.55
2019-06-15T09:40:08.620Z,3.40
2019-06-15T09:42:38.161Z,3.62
2019-06-15T09:45:07.867Z,3.90
2019-06-15T09:47:37.254Z,3.92
2019-06-15T09:50:07.116Z,3.70
2019-06-15T09:52:36.738Z,4.12
2019-06-15T09:55:06.679Z,3.87
2019-06-15T09:57:36.284Z,3.67
2019-06-15T10:00:06.530Z,3.42
2019-06-15T10:02:36.069Z,3.12
2019-06-15T10:05:06.331Z,3.77
2019-06-15T10:07:35.897Z,3.58
2019-06-15T10:10:05.825Z,3.02
2019-06-15T10:12:35.294Z,3.65
2019-06-15T10:15:06.038Z,3.60
2019-06-15T10:17:35.575Z,3.00
2019-06-15T10:20:06.234Z,3.22
2019-06-15T10:22:35.636Z,3.33
2019-06-15T10:25:05.243Z,3.10
2019-06-15T10:27:35.110Z,3.52
2019-06-15T10:30:04.823Z,3.20
2019-06-15T10:32:34.232Z,3.25
2019-06-15T10:35:03.828Z,3.72
2019-06-15T10:37:33.560Z,3.60
2019-06-15T10:40:03.086Z,3.85
2019-06-15T10:42:32.548Z,5.28
2019-06-15T10:45:02.058Z,3.77
2019-06-15T10:47:31.561Z,3.33
2019-06-15T10:50:01.107Z,3.10
2019-06-15T10:52:30.995Z,2.87
2019-06-15T10:55:00.439Z,3.22
2019-06-15T10:57:30.157Z,3.17
2019-06-15T10:59:59.678Z,3.67
2019-06-15T11:02:29.233Z,3.45
2019-06-15T11:04:58.654Z,3.72
2019-06-15T11:07:28.179Z,3.65
2019-06-15T11:09:57.667Z,5.15
2019-06-15T11:12:27.281Z,3.85
2019-06-15T11:14:57.370Z,3.00
2019-06-15T11:17:26.856Z,4.20
2019-06-15T11:19:56.361Z,3.25
2019-06-15T11:22:25.916Z,3.25
2019-06-15T11:24:55.448Z,3.45
2019-06-15T11:27:24.824Z,3.10
2019-06-15T11:29:54.392Z,3.20
2019-06-15T11:32:23.883Z,3.37
2019-06-15T11:34:53.280Z,3.05
2019-06-15T11:37:22.860Z,7.47
2019-06-15T11:39:52.354Z,4.03
2019-06-15T11:42:21.859Z,3.27
2019-06-15T11:44:51.286Z,3.60
2019-06-15T11:47:20.693Z,3.02
2019-06-15T11:49:50.224Z,3.30
2019-06-15T11:52:19.802Z,3.00
2019-06-15T11:54:49.191Z,3.50
2019-06-15T11:57:18.858Z,3.58
2019-06-15T11:59:48.482Z,3.40
2019-06-15T12:02:17.978Z,3.00
2019-06-15T12:04:57.965Z,3.12
2019-06-15T12:07:18.618Z,3.27
2019-06-15T12:09:48.027Z,3.15
2019-06-15T12:12:17.423Z,3.52
2019-06-15T12:14:46.981Z,3.42
2019-06-15T12:17:17.592Z,3.60
2019-06-15T12:19:46.975Z,3.60
2019-06-15T12:22:16.445Z,3.35
2019-06-15T12:24:46.252Z,3.20
2019-06-15T12:27:15.763Z,3.15
2019-06-15T12:29:45.195Z,3.45
2019-06-15T12:32:14.698Z,3.10
2019-06-15T12:34:44.207Z,3.70
2019-06-15T12:37:13.732Z,3.25
2019-06-15T12:39:43.284Z,3.40
2019-06-15T12:42:12.652Z,3.65
2019-06-15T12:44:42.195Z,3.33
2019-06-15T12:47:11.588Z,4.28
2019-06-15T12:49:41.076Z,3.37
2019-06-15T12:52:10.640Z,3.45
2019-06-15T12:54:40.028Z,3.12
2019-06-15T12:57:10.824Z,3.30
2019-06-15T12:59:41.319Z,3.08
2019-06-15T13:02:10.847Z,2.85
2019-06-15T13:04:40.210Z,3.15
2019-06-15T13:07:09.708Z,2.85
2019-06-15T13:09:39.192Z,3.70
2019-06-15T13:12:08.703Z,2.87
2019-06-15T13:14:38.126Z,3.58
2019-06-15T13:17:07.575Z,4.03
2019-06-15T13:19:37.066Z,3.33
2019-06-15T13:22:06.611Z,3.22
2019-06-15T13:24:36.098Z,3.20
2019-06-15T13:27:05.742Z,3.10
2019-06-15T13:29:35.124Z,2.80
2019-06-15T13:32:04.514Z,3.35
2019-06-15T13:34:33.999Z,3.72
2019-06-15T13:37:05.024Z,4.08
2019-06-15T13:39:34.404Z,3.45
2019-06-15T13:42:04.094Z,3.67
2019-06-15T13:44:33.662Z,3.70
2019-06-15T13:47:03.158Z,3.90
2019-06-15T13:49:32.550Z,4.30
2019-06-15T13:52:01.981Z,4.00
2019-06-15T13:54:31.522Z,3.87
2019-06-15T13:57:00.998Z,4.05
2019-06-15T13:59:30.547Z,3.37
2019-06-15T14:01:59.936Z,3.80
2019-06-15T14:04:29.520Z,3.35
2019-06-15T14:06:59.007Z,4.20
2019-06-15T14:09:28.502Z,4.45
2019-06-15T14:11:57.969Z,3.52
2019-06-15T14:14:27.384Z,3.90
2019-06-15T14:16:57.648Z,4.40
2019-06-15T14:19:27.128Z,3.90
2019-06-15T14:21:56.623Z,4.30
2019-06-15T14:24:26.025Z,3.92
2019-06-15T14:26:55.395Z,3.83
2019-06-15T14:29:24.911Z,4.58
2019-06-15T14:31:54.461Z,3.77
2019-06-15T14:34:23.815Z,4.12
2019-06-15T14:36:53.194Z,3.65
2019-06-15T14:39:22.734Z,3.90
2019-06-15T14:41:52.221Z,3.60
2019-06-15T14:44:21.609Z,4.12
2019-06-15T14:46:51.136Z,3.70
2019-06-15T14:49:20.622Z,4.33
2019-06-15T14:51:51.099Z,4.15
2019-06-15T14:54:20.742Z,4.12
2019-06-15T14:56:50.230Z,4.00
2019-06-15T14:59:19.673Z,4.55
2019-06-15T15:01:49.128Z,3.95
2019-06-15T15:04:18.668Z,4.03
2019-06-15T15:06:48.186Z,3.90
2019-06-15T15:09:17.598Z,3.60
2019-06-15T15:11:47.119Z,3.83
2019-06-15T15:14:17.375Z,3.90
2019-06-15T15:16:47.035Z,4.12
2019-06-15T15:19:16.777Z,3.80
2019-06-15T15:21:46.288Z,3.87
2019-06-15T15:24:16.716Z,3.67
2019-06-15T15:26:47.076Z,4.30
2019-06-15T15:29:16.732Z,4.20
2019-06-15T15:31:46.789Z,3.90
2019-06-15T15:34:17.391Z,4.00
2019-06-15T15:36:46.969Z,3.58
2019-06-15T15:39:16.784Z,4.00
2019-06-15T15:41:47.010Z,4.37
2019-06-15T15:44:16.626Z,4.20
2019-06-15T15:46:46.386Z,4.22
2019-06-15T15:49:16.427Z,3.70
2019-06-15T15:51:47.330Z,4.10
2019-06-15T15:54:16.889Z,4.05
2019-06-15T15:56:46.759Z,4.33
2019-06-15T15:59:16.420Z,4.03
2019-06-15T16:01:46.343Z,4.25
2019-06-15T16:04:17.042Z,4.15
2019-06-15T16:06:46.920Z,4.17
2019-06-15T16:09:17.002Z,4.22
2019-06-15T16:11:47.413Z,4.47
2019-06-15T16:14:17.251Z,3.75
2019-06-15T16:16:46.999Z,4.65
2019-06-15T16:19:17.103Z,4.47
2019-06-15T16:21:47.222Z,4.58
2019-06-15T16:24:16.988Z,4.62
2019-06-15T16:26:46.880Z,4.87
2019-06-15T16:29:16.915Z,4.17
2019-06-15T16:31:46.308Z,5.65
2019-06-15T16:34:16.231Z,8.13
2019-06-15T16:36:46.979Z,4.87
2019-06-15T16:39:16.888Z,4.75
2019-06-15T16:41:47.112Z,5.85
2019-06-15T16:44:17.404Z,5.10
2019-06-15T16:46:47.064Z,6.17
2019-06-15T16:49:20.515Z,5.45
2019-06-15T16:51:47.591Z,4.62
2019-06-15T16:54:17.087Z,6.40
2019-06-15T16:56:46.850Z,4.75
2019-06-15T16:59:16.304Z,4.87
2019-06-15T17:01:45.688Z,6.12
2019-06-15T17:04:16.559Z,5.72
2019-06-15T17:06:46.279Z,5.17
2019-06-15T17:09:16.918Z,6.15
2019-06-15T17:11:47.134Z,5.72
2019-06-15T17:14:17.255Z,5.87
2019-06-15T17:16:47.711Z,5.78
2019-06-15T17:19:17.182Z,5.03
2019-06-15T17:21:46.748Z,5.50
2019-06-15T17:24:17.088Z,5.70
2019-06-15T17:26:46.954Z,6.45
2019-06-15T17:29:16.472Z,5.00
2019-06-15T17:31:46.738Z,6.65
2019-06-15T17:34:16.742Z,9.13
2019-06-15T17:36:47.279Z,6.62
2019-06-15T17:39:17.182Z,5.45
2019-06-15T17:41:47.363Z,5.83
2019-06-15T17:44:17.161Z,8.15
2019-06-15T17:46:46.732Z,5.92
2019-06-15T17:49:17.942Z,7.97
2019-06-15T17:51:47.650Z,8.80
2019-06-15T17:54:17.212Z,7.47
2019-06-15T17:56:46.642Z,7.67
2019-06-15T17:59:16.430Z,6.30
2019-06-15T18:01:46.876Z,6.35
2019-06-15T18:04:16.819Z,5.83
2019-06-15T18:06:46.947Z,6.72
2019-06-15T18:09:17.205Z,5.90
2019-06-15T18:11:46.744Z,6.03
2019-06-15T18:14:17.722Z,6.28
2019-06-15T18:16:47.441Z,6.80
2019-06-15T18:19:17.242Z,7.08
2019-06-15T18:21:47.005Z,7.00
2019-06-15T18:24:16.647Z,7.22
2019-06-15T18:26:47.433Z,6.53
2019-06-15T18:29:17.024Z,6.85
2019-06-15T18:31:46.420Z,6.58
2019-06-15T18:34:16.895Z,6.05
2019-06-15T18:36:46.759Z,6.97
2019-06-15T18:39:16.655Z,6.90
2019-06-15T18:41:46.350Z,8.10
2019-06-15T18:44:16.197Z,6.33
2019-06-15T18:46:46.603Z,6.53
2019-06-15T18:49:16.322Z,8.50
2019-06-15T18:51:46.163Z,6.45
2019-06-15T18:54:16.102Z,5.72
2019-06-15T18:56:46.063Z,6.30
2019-06-15T18:59:16.809Z,6.33
2019-06-15T19:01:47.090Z,6.47
2019-06-15T19:04:24.595Z,5.90
2019-06-15T19:06:47.703Z,5.47
2019-06-15T19:09:17.229Z,5.90
2019-06-15T19:11:46.868Z,6.70
2019-06-15T19:14:16.655Z,6.58
2019-06-15T19:16:47.166Z,6.75
2019-06-15T19:19:17.190Z,6.22
2019-06-15T19:21:46.956Z,6.47
2019-06-15T19:24:16.852Z,5.92
2019-06-15T19:26:47.183Z,6.72
2019-06-15T19:29:17.160Z,5.70
2019-06-15T19:31:46.923Z,5.15
2019-06-15T19:34:16.849Z,6.15
2019-06-15T19:36:46.845Z,6.80
2019-06-15T19:39:16.702Z,5.70
2019-06-15T19:41:46.255Z,6.20
2019-06-15T19:44:16.321Z,7.05
2019-06-15T19:46:47.721Z,6.03
2019-06-15T19:49:17.478Z,6.62
2019-06-15T19:51:47.368Z,6.70
2019-06-15T19:54:16.898Z,5.47
2019-06-15T19:56:46.772Z,6.12
2019-06-15T19:59:17.105Z,6.40
2019-06-15T20:01:46.932Z,6.58
2019-06-15T20:04:17.069Z,5.53
2019-06-15T20:06:46.467Z,5.92
2019-06-15T20:09:15.964Z,6.10
2019-06-15T20:11:46.811Z,5.87
2019-06-15T20:14:16.590Z,6.00
2019-06-15T20:16:47.020Z,6.05
2019-06-15T20:19:17.460Z,5.30
2019-06-15T20:21:47.216Z,5.03
2019-06-15T20:24:19.156Z,5.50
2019-06-15T20:26:47.842Z,4.62
2019-06-15T20:29:17.545Z,5.03
2019-06-15T20:31:47.042Z,4.42
2019-06-15T20:34:16.617Z,5.45
2019-06-15T20:36:47.119Z,5.03
2019-06-15T20:39:16.749Z,5.03
2019-06-15T20:41:47.215Z,5.10
2019-06-15T20:44:16.696Z,5.50
2019-06-15T20:46:46.532Z,5.15
2019-06-15T20:49:16.044Z,6.30
2019-06-15T20:51:46.257Z,5.50
2019-06-15T20:54:16.836Z,5.35
2019-06-15T20:56:46.475Z,5.62
2019-06-15T20:59:16.944Z,5.50
2019-06-15T21:01:46.511Z,5.35
2019-06-15T21:04:16.252Z,5.40
2019-06-15T21:06:45.785Z,5.53
2019-06-15T21:09:18.608Z,5.95
2019-06-15T21:11:46.409Z,5.22
2019-06-15T21:14:15.920Z,6.22
2019-06-15T21:16:46.372Z,6.40
2019-06-15T21:19:17.021Z,5.90
2019-06-15T21:21:47.167Z,5.67
2019-06-15T21:24:17.112Z,5.37
2019-06-15T21:26:46.584Z,5.17
2019-06-15T21:29:16.740Z,5.67
2019-06-15T21:31:46.535Z,6.22
2019-06-15T21:34:16.025Z,6.65
2019-06-15T21:36:46.037Z,6.00
2019-06-15T21:39:15.711Z,5.87
2019-06-15T21:41:46.276Z,6.90
2019-06-15T21:44:16.797Z,6.22
2019-06-15T21:46:46.881Z,7.15
2019-06-15T21:49:16.588Z,6.55
2019-06-15T21:51:47.376Z,6.25
2019-06-15T21:54:16.998Z,6.30
2019-06-15T21:56:46.429Z,7.03
2019-06-15T21:59:16.521Z,6.60
2019-06-15T22:01:46.199Z,6.67
2019-06-15T22:04:16.609Z,7.15
2019-06-15T22:06:47.728Z,6.03
2019-06-15T22:09:20.683Z,6.35
2019-06-15T22:11:48.886Z,6.17
2019-06-15T22:14:18.284Z,5.40
2019-06-15T22:16:47.852Z,6.10
2019-06-15T22:19:18.461Z,6.75
2019-06-15T22:21:48.016Z,7.30
2019-06-15T22:24:17.409Z,8.33
2019-06-15T22:26:46.931Z,7.60
2019-06-15T22:29:16.876Z,6.50
2019-06-15T22:31:46.842Z,7.47
2019-06-15T22:34:16.529Z,5.95
2019-06-15T22:36:47.961Z,6.37
2019-06-15T22:39:17.318Z,6.42
2019-06-15T22:41:47.123Z,7.30
2019-06-15T22:44:16.997Z,6.25
2019-06-15T22:46:46.669Z,6.30
2019-06-15T22:49:16.242Z,6.00
2019-06-15T22:51:46.003Z,5.97
2019-06-15T22:54:16.748Z,5.90
2019-06-15T22:56:46.710Z,6.35
2019-06-15T22:59:16.909Z,5.47
2019-06-15T23:01:46.495Z,6.22
2019-06-15T23:04:17.298Z,5.97
2019-06-15T23:06:48.228Z,5.97
2019-06-15T23:09:18.033Z,5.95
2019-06-15T23:11:47.566Z,6.30
2019-06-15T23:14:17.294Z,6.05
2019-06-15T23:16:47.721Z,6.12
2019-06-15T23:19:17.706Z,6.58
2019-06-15T23:21:48.371Z,6.15
2019-06-15T23:24:17.868Z,6.22
2019-06-15T23:26:47.365Z,7.17
2019-06-15T23:29:16.892Z,6.28
2019-06-15T23:31:46.402Z,6.20
2019-06-15T23:34:16.291Z,6.33
2019-06-15T23:36:56.716Z,6.75
2019-06-15T23:39:18.918Z,5.80
2019-06-15T23:41:48.508Z,6.45
2019-06-15T23:44:17.968Z,5.92
2019-06-15T23:46:47.473Z,5.97
2019-06-15T23:49:17.028Z,6.15
2019-06-15T23:51:46.857Z,5.87
2019-06-15T23:54:16.279Z,6.00
2019-06-15T23:56:46.310Z,6.62
2019-06-15T23:59:17.912Z,5.27
